Time;durP1;ratioP1;P1;durP2;ratioP2;P2;SDS_P1;SDS_P2;PMS_P1;PMS_P2;Temp;Humidity;BMP_temperature;BMP_pressure;BME280_temperature;BME280_humidity;BME280_pressure;Samples;Min_cycle;Max_cycle;Signal;HPM_P1;HPM_P2
2021/11/22 00:01:00;;;;;;;21.80;18.37;;;;;22.00;100632.00;;;;2054019;28;20576;-49
2021/11/22 00:02:01;;;;;;;22.45;18.55;;;;;22.00;100639.00;;;;2044064;29;20220;-51
2021/11/22 00:03:01;;;;;;;19.93;17.73;;;;;22.00;100642.00;;;;2046596;29;20220;-49
2021/11/22 00:04:02;;;;;;;21.03;17.67;;;;;21.90;100642.00;;;;2055050;28;20281;-49
2021/11/22 00:05:02;;;;;;;19.87;16.57;;;;;22.00;100641.00;;;;2046655;29;20216;-50
2021/11/22 00:06:02;;;;;;;18.10;16.17;;;;;22.00;100643.00;;;;2046691;29;20236;-50
2021/11/22 00:07:03;;;;;;;22.20;17.53;;;;;22.00;100653.00;;;;2054952;28;20270;-47
2021/11/22 00:08:04;;;;;;;18.43;16.40;;;;;21.90;100654.00;;;;2054862;28;20249;-47
2021/11/22 00:09:04;;;;;;;19.00;16.60;;;;;21.90;100651.00;;;;2055241;28;20235;-49
2021/11/22 00:10:05;;;;;;;17.93;16.00;;;;;21.90;100655.00;;;;2054781;28;20267;-48
2021/11/22 00:11:05;;;;;;;17.70;15.30;;;;;21.90;100652.00;;;;2054048;28;20216;-48
2021/11/22 00:12:06;;;;;;;17.47;15.07;;;;;21.90;100651.00;;;;2054641;28;20246;-48
2021/11/22 00:13:06;;;;;;;16.60;14.43;;;;;21.90;100656.00;;;;2054974;28;20646;-48
2021/11/22 00:14:07;;;;;;;17.00;14.53;;;;;21.90;100652.00;;;;2054276;28;20274;-49
2021/11/22 00:15:09;;;;;;;17.23;13.90;;;;;21.90;100649.00;;;;2053648;28;21201;-48
2021/11/22 00:16:09;;;;;;;15.75;13.75;;;;;21.90;100654.00;;;;2054710;28;20219;-47
2021/11/22 00:17:09;;;;;;;16.50;14.00;;;;;21.90;100655.00;;;;2051837;28;20215;-47
2021/11/22 00:18:10;;;;;;;16.90;14.03;;;;;21.90;100655.00;;;;2052436;28;20207;-48
2021/11/22 00:19:10;;;;;;;15.60;13.43;;;;;21.90;100659.00;;;;2054560;28;20299;-48
2021/11/22 00:20:14;;;;;;;15.63;14.00;;;;;21.90;100652.00;;;;2054435;28;20223;-49
2021/11/22 00:21:15;;;;;;;15.63;12.50;;;;;21.90;100655.00;;;;2053366;28;20691;-48
2021/11/22 00:22:15;;;;;;;14.25;12.27;;;;;21.90;100659.00;;;;2050342;28;20215;-49
2021/11/22 00:23:15;;;;;;;15.00;12.10;;;;;21.90;100659.00;;;;2054435;28;20218;-48
2021/11/22 00:24:16;;;;;;;13.77;11.60;;;;;21.90;100662.00;;;;2054578;28;20329;-48
2021/11/22 00:25:16;;;;;;;14.37;12.70;;;;;21.90;100671.00;;;;2053833;28;20211;-48
2021/11/22 00:26:17;;;;;;;15.17;12.17;;;;;21.90;100666.00;;;;2054046;28;20212;-48
2021/11/22 00:27:17;;;;;;;13.23;11.63;;;;;21.90;100668.00;;;;2054478;28;20214;-48
2021/11/22 00:28:17;;;;;;;13.07;11.00;;;;;21.80;100663.00;;;;2054255;28;20219;-49
2021/11/22 00:29:18;;;;;;;12.57;11.27;;;;;21.80;100671.00;;;;2054661;28;20265;-48
2021/11/22 00:30:18;;;;;;;13.43;10.60;;;;;21.90;100666.00;;;;2053834;28;20330;-47
2021/11/22 00:31:19;;;;;;;12.63;11.30;;;;;21.90;100674.00;;;;2054061;28;20261;-48
2021/11/22 00:32:19;;;;;;;13.77;10.90;;;;;21.90;100677.00;;;;2053951;28;20247;-47
2021/11/22 00:33:19;;;;;;;16.80;11.93;;;;;21.80;100678.00;;;;2054377;28;20266;-52
2021/11/22 00:34:20;;;;;;;13.60;11.20;;;;;21.80;100681.00;;;;2053985;28;20211;-49
2021/11/22 00:35:20;;;;;;;13.17;10.70;;;;;21.80;100685.00;;;;2054365;28;20231;-50
2021/11/22 00:36:21;;;;;;;13.13;10.60;;;;;21.80;100678.00;;;;2054639;28;20212;-48
2021/11/22 00:37:25;;;;;;;12.93;10.60;;;;;21.80;100683.00;;;;2053494;28;20734;-51
2021/11/22 00:38:25;;;;;;;12.07;9.98;;;;;21.80;100689.00;;;;2053642;28;20212;-47
2021/11/22 00:39:25;;;;;;;14.30;10.87;;;;;21.70;100686.00;;;;2055027;28;20219;-51
2021/11/22 00:40:26;;;;;;;11.33;9.83;;;;;21.80;100695.00;;;;2053992;28;20290;-50
2021/11/22 00:41:27;;;;;;;13.40;10.33;;;;;21.80;100689.00;;;;2054785;28;20212;-49
2021/11/22 00:42:27;;;;;;;10.20;8.60;;;;;21.80;100692.00;;;;2043039;28;20216;-47
2021/11/22 00:43:27;;;;;;;11.90;9.60;;;;;21.80;100693.00;;;;2043885;29;20771;-47
2021/11/22 00:44:27;;;;;;;12.50;9.90;;;;;21.80;100694.00;;;;2054579;28;20242;-46
2021/11/22 00:45:29;;;;;;;11.10;8.93;;;;;21.70;100693.00;;;;2054163;28;20218;-53
2021/11/22 00:46:29;;;;;;;11.40;9.00;;;;;21.80;100693.00;;;;2054271;28;20212;-48
2021/11/22 00:47:29;;;;;;;10.37;8.50;;;;;21.70;100701.00;;;;2045287;29;20740;-46
2021/11/22 00:48:30;;;;;;;10.90;8.40;;;;;21.70;100695.00;;;;2045923;29;20228;-47
2021/11/22 00:49:31;;;;;;;11.20;8.97;;;;;21.70;100694.00;;;;2053867;28;20220;-50
2021/11/22 00:50:31;;;;;;;11.00;8.30;;;;;21.80;100709.00;;;;2053314;28;20226;-48
2021/11/22 00:51:32;;;;;;;11.10;8.40;;;;;21.70;100702.00;;;;2045473;28;20303;-47
2021/11/22 00:52:32;;;;;;;9.07;8.00;;;;;21.80;100702.00;;;;2045622;28;20227;-50
2021/11/22 00:53:32;;;;;;;9.63;8.07;;;;;21.80;100708.00;;;;2054305;28;20302;-49
2021/11/22 00:54:33;;;;;;;9.70;7.90;;;;;21.80;100710.00;;;;2054043;28;20216;-50
2021/11/22 00:55:33;;;;;;;8.43;7.20;;;;;21.80;100709.00;;;;2054218;28;20642;-47
2021/11/22 00:56:36;;;;;;;9.80;7.30;;;;;21.80;100712.00;;;;2054696;28;21309;-48
2021/11/22 00:57:36;;;;;;;9.23;7.55;;;;;21.80;100711.00;;;;2054804;28;20243;-50
2021/11/22 00:58:37;;;;;;;9.87;7.73;;;;;21.70;100722.00;;;;2052715;28;20262;-47
2021/11/22 00:59:37;;;;;;;9.40;7.60;;;;;21.70;100722.00;;;;2054247;28;20211;-51
2021/11/22 01:00:37;;;;;;;8.63;6.93;;;;;21.70;100717.00;;;;2053859;28;20218;-49
2021/11/22 01:01:38;;;;;;;9.10;7.27;;;;;21.70;100714.00;;;;2054518;28;20699;-49
2021/11/22 01:02:38;;;;;;;8.27;7.10;;;;;21.70;100712.00;;;;2051631;28;20223;-48
2021/11/22 01:03:38;;;;;;;9.10;6.80;;;;;21.70;100715.00;;;;2054807;28;20211;-48
2021/11/22 01:04:39;;;;;;;7.67;6.80;;;;;21.70;100728.00;;;;2046230;28;20267;-48
2021/11/22 01:05:39;;;;;;;8.70;7.20;;;;;21.70;100719.00;;;;2042224;29;20212;-49
2021/11/22 01:06:39;;;;;;;8.40;6.70;;;;;21.70;100724.00;;;;2054738;28;20235;-48
2021/11/22 01:07:40;;;;;;;8.60;6.40;;;;;21.70;100731.00;;;;2045570;29;20227;-48
2021/11/22 01:08:40;;;;;;;8.00;6.37;;;;;21.70;100728.00;;;;2046015;29;20271;-47
2021/11/22 01:09:40;;;;;;;8.90;6.73;;;;;21.70;100725.00;;;;2054777;28;20563;-48
2021/11/22 01:10:41;;;;;;;7.80;6.13;;;;;21.70;100732.00;;;;2053897;28;20212;-47
2021/11/22 01:11:41;;;;;;;7.50;6.67;;;;;21.70;100718.00;;;;2054232;28;20270;-47
2021/11/22 01:12:41;;;;;;;6.37;5.73;;;;;21.70;100740.00;;;;2054544;28;20266;-49
2021/11/22 01:13:42;;;;;;;8.80;6.40;;;;;21.70;100747.00;;;;2054244;28;20294;-48
2021/11/22 01:14:42;;;;;;;7.20;5.80;;;;;21.70;100746.00;;;;2054397;28;20670;-48
2021/11/22 01:15:42;;;;;;;7.83;5.80;;;;;21.70;100753.00;;;;2054710;28;20583;-48
2021/11/22 01:16:43;;;;;;;9.63;6.67;;;;;21.70;100751.00;;;;2054757;28;20230;-48
2021/11/22 01:17:43;;;;;;;8.27;6.00;;;;;21.70;100739.00;;;;2054016;28;20230;-49
2021/11/22 01:18:44;;;;;;;7.10;5.40;;;;;21.70;100750.00;;;;2054179;28;20216;-48
2021/11/22 01:19:44;;;;;;;7.40;5.50;;;;;21.60;100746.00;;;;2053993;28;20238;-48
2021/11/22 01:20:44;;;;;;;6.73;5.87;;;;;21.70;100754.00;;;;2053031;28;20714;-49
2021/11/22 01:21:45;;;;;;;6.47;5.80;;;;;21.70;100751.00;;;;2053806;28;20234;-48
2021/11/22 01:22:45;;;;;;;6.47;5.23;;;;;21.70;100756.00;;;;2054307;28;20242;-48
2021/11/22 01:23:45;;;;;;;6.00;4.83;;;;;21.70;100754.00;;;;2054346;28;20691;-48
2021/11/22 01:24:46;;;;;;;7.53;5.17;;;;;21.70;100761.00;;;;2054372;28;20718;-48
2021/11/22 01:25:46;;;;;;;7.17;5.50;;;;;21.70;100765.00;;;;2054583;28;20218;-49
2021/11/22 01:26:47;;;;;;;6.73;4.97;;;;;21.70;100764.00;;;;2054477;28;20239;-49
2021/11/22 01:27:47;;;;;;;7.30;5.30;;;;;21.70;100768.00;;;;2051915;28;20342;-48
2021/11/22 01:28:48;;;;;;;7.03;5.50;;;;;21.40;100756.00;;;;2045205;28;20220;-49
2021/11/22 01:29:48;;;;;;;5.40;4.83;;;;;21.60;100760.00;;;;2036951;29;20220;-51
2021/11/22 01:30:48;;;;;;;6.50;5.03;;;;;21.60;100758.00;;;;2044963;29;20292;-50
2021/11/22 01:31:49;;;;;;;7.27;5.13;;;;;21.70;100763.00;;;;2053085;28;20262;-48
2021/11/22 01:32:49;;;;;;;6.33;5.10;;;;;21.70;100766.00;;;;2041473;28;20227;-50
2021/11/22 01:33:50;;;;;;;5.33;4.80;;;;;21.60;100758.00;;;;2053314;28;20220;-51
2021/11/22 01:34:50;;;;;;;6.27;5.03;;;;;21.70;100765.00;;;;2053550;28;20227;-51
2021/11/22 01:35:50;;;;;;;5.43;4.77;;;;;21.70;100772.00;;;;2053689;28;20766;-51
2021/11/22 01:36:51;;;;;;;5.03;4.53;;;;;21.60;100775.00;;;;2053928;28;20251;-48
2021/11/22 01:37:51;;;;;;;5.40;4.43;;;;;21.60;100765.00;;;;2053737;28;20282;-49
2021/11/22 01:38:52;;;;;;;7.13;4.90;;;;;21.60;100780.00;;;;2053766;28;20227;-50
2021/11/22 01:39:52;;;;;;;7.90;5.37;;;;;21.70;100776.00;;;;2054000;28;20266;-50
2021/11/22 01:40:52;;;;;;;7.00;4.70;;;;;21.60;100774.00;;;;2053142;28;20227;-50
2021/11/22 01:41:53;;;;;;;6.47;4.73;;;;;21.60;100769.00;;;;2053916;28;20220;-51
2021/11/22 01:42:54;;;;;;;5.07;4.43;;;;;21.60;100785.00;;;;2054368;28;20251;-49
2021/11/22 01:43:54;;;;;;;5.80;5.15;;;;;21.60;100784.00;;;;2054082;28;20295;-51
2021/11/22 01:44:54;;;;;;;5.30;4.30;;;;;21.60;100786.00;;;;2054387;28;20220;-51
2021/11/22 01:45:55;;;;;;;5.60;4.40;;;;;21.60;100777.00;;;;2054193;28;20231;-51
2021/11/22 01:46:55;;;;;;;5.23;4.50;;;;;21.60;100784.00;;;;2053844;28;21095;-50
2021/11/22 01:47:58;;;;;;;4.93;4.23;;;;;21.60;100778.00;;;;2050673;28;20231;-49
2021/11/22 01:48:59;;;;;;;4.90;4.30;;;;;21.60;100786.00;;;;2043518;29;20280;-51
2021/11/22 01:50:00;;;;;;;5.18;4.53;;;;;21.60;100791.00;;;;2037290;29;20223;-50
2021/11/22 01:51:00;;;;;;;4.80;4.17;;;;;21.60;100791.00;;;;2044369;28;20231;-50
2021/11/22 01:52:01;;;;;;;4.40;3.80;;;;;21.60;100788.00;;;;2053671;28;20219;-51
2021/11/22 01:53:01;;;;;;;4.40;3.87;;;;;21.60;100785.00;;;;2053906;28;20263;-51
2021/11/22 01:54:02;;;;;;;4.50;4.10;;;;;21.60;100789.00;;;;2053705;28;20235;-48
2021/11/22 01:55:02;;;;;;;4.93;4.43;;;;;21.60;100790.00;;;;2054006;28;20215;-49
2021/11/22 01:56:03;;;;;;;6.00;3.97;;;;;21.60;100802.00;;;;2054002;28;20547;-51
2021/11/22 01:57:04;;;;;;;4.30;3.90;;;;;21.60;100799.00;;;;2053746;28;20731;-49
2021/11/22 01:58:04;;;;;;;4.20;3.50;;;;;21.60;100805.00;;;;2045160;29;20251;-49
2021/11/22 01:59:05;;;;;;;5.07;3.83;;;;;21.60;100799.00;;;;2043246;28;20227;-50
2021/11/22 02:00:08;;;;;;;4.73;4.30;;;;;21.50;100802.00;;;;2053941;28;20302;-51
2021/11/22 02:01:08;;;;;;;4.32;3.92;;;;;21.60;100809.00;;;;2052895;28;20217;-48
2021/11/22 02:02:09;;;;;;;4.83;3.80;;;;;21.50;100816.00;;;;2053674;28;20222;-55
2021/11/22 02:03:09;;;;;;;5.00;4.07;;;;;21.60;100808.00;;;;2053955;28;20220;-51
2021/11/22 02:04:10;;;;;;;5.10;3.90;;;;;21.60;100810.00;;;;2053728;28;20651;-52
2021/11/22 02:05:10;;;;;;;4.17;3.77;;;;;21.60;100806.00;;;;2054207;28;20214;-49
2021/11/22 02:06:11;;;;;;;3.93;3.50;;;;;21.60;100815.00;;;;2054179;28;20252;-48
2021/11/22 02:07:11;;;;;;;5.80;4.50;;;;;21.50;100818.00;;;;2054370;28;20198;-49
2021/11/22 02:08:11;;;;;;;4.53;4.10;;;;;21.50;100826.00;;;;2053759;28;20285;-48
2021/11/22 02:09:13;;;;;;;4.33;3.93;;;;;21.60;100821.00;;;;2053312;28;20227;-47
2021/11/22 02:10:13;;;;;;;3.97;3.58;;;;;21.50;100823.00;;;;2053319;28;20219;-48
2021/11/22 02:11:14;;;;;;;5.33;3.90;;;;;21.60;100823.00;;;;2053190;28;20207;-51
2021/11/22 02:12:14;;;;;;;4.23;3.60;;;;;21.50;100821.00;;;;2053836;28;20337;-51
2021/11/22 02:13:14;;;;;;;4.20;3.80;;;;;21.50;100828.00;;;;2045178;28;20232;-51
2021/11/22 02:14:15;;;;;;;5.10;4.10;;;;;21.50;100816.00;;;;2044750;28;20279;-51
2021/11/22 02:15:15;;;;;;;5.37;3.60;;;;;21.50;100824.00;;;;2045493;28;20204;-48
2021/11/22 02:16:16;;;;;;;4.47;3.97;;;;;21.50;100819.00;;;;2045671;28;20212;-52
2021/11/22 02:17:16;;;;;;;4.90;3.67;;;;;21.50;100821.00;;;;2045843;28;20208;-51
2021/11/22 02:18:18;;;;;;;3.60;3.00;;;;;21.60;100829.00;;;;2045746;28;20235;-50
2021/11/22 02:19:18;;;;;;;5.38;4.05;;;;;21.50;100834.00;;;;2045757;28;20230;-49
2021/11/22 02:20:27;;;;;;;4.40;3.50;;;;;21.50;100836.00;;;;2045353;28;20226;-51
2021/11/22 02:21:27;;;;;;;3.83;3.25;;;;;21.50;100834.00;;;;2045573;28;20219;-49
2021/11/22 02:22:27;;;;;;;4.33;3.93;;;;;21.50;100834.00;;;;2045806;28;20227;-47
2021/11/22 02:23:28;;;;;;;5.00;3.33;;;;;21.60;100843.00;;;;2045236;28;20209;-49
2021/11/22 02:24:28;;;;;;;5.20;3.73;;;;;21.50;100834.00;;;;2045778;28;20745;-49
2021/11/22 02:25:29;;;;;;;4.67;3.30;;;;;21.50;100848.00;;;;2037305;28;20220;-47
2021/11/22 02:26:30;;;;;;;4.50;3.17;;;;;21.50;100837.00;;;;2045655;28;20212;-48
2021/11/22 02:27:31;;;;;;;3.60;3.30;;;;;21.50;100828.00;;;;2045887;28;20607;-47
2021/11/22 02:28:31;;;;;;;3.97;3.55;;;;;21.40;100833.00;;;;2045715;28;20216;-47
2021/11/22 02:29:31;;;;;;;3.90;3.50;;;;;21.50;100839.00;;;;2045192;28;20212;-48
2021/11/22 02:30:34;;;;;;;3.40;3.10;;;;;21.50;100838.00;;;;2044727;28;20275;-50
2021/11/22 02:31:35;;;;;;;6.03;3.88;;;;;21.40;100837.00;;;;2045688;28;20220;-49
2021/11/22 02:32:37;;;;;;;3.95;3.65;;;;;21.50;100835.00;;;;2045893;28;20275;-49
2021/11/22 02:33:37;;;;;;;4.28;3.88;;;;;21.40;100844.00;;;;2045920;28;20295;-48
2021/11/22 02:34:38;;;;;;;4.10;3.17;;;;;21.40;100844.00;;;;2045675;28;20292;-49
2021/11/22 02:35:41;;;;;;;3.78;3.25;;;;;21.40;100850.00;;;;2045897;28;20216;-50
2021/11/22 02:36:41;;;;;;;3.75;3.28;;;;;21.50;100845.00;;;;2046184;28;20223;-48
2021/11/22 02:37:42;;;;;;;3.60;3.30;;;;;21.50;100852.00;;;;2046079;28;20295;-48
2021/11/22 02:38:42;;;;;;;3.80;3.10;;;;;21.50;100858.00;;;;2046382;28;20275;-49
2021/11/22 02:39:43;;;;;;;4.43;3.27;;;;;21.40;100850.00;;;;2046229;28;20251;-49
2021/11/22 02:40:43;;;;;;;4.40;3.60;;;;;21.50;100857.00;;;;2045190;28;20208;-49
2021/11/22 02:41:43;;;;;;;5.27;3.30;;;;;21.50;100857.00;;;;2046257;28;20687;-49
2021/11/22 02:42:45;;;;;;;3.40;3.10;;;;;21.40;100852.00;;;;2043974;28;20223;-48
2021/11/22 02:43:45;;;;;;;3.50;3.00;;;;;21.50;100855.00;;;;2045930;28;20215;-49
2021/11/22 02:44:46;;;;;;;3.90;3.30;;;;;21.50;100865.00;;;;2046237;28;20239;-52
2021/11/22 02:45:46;;;;;;;3.33;2.90;;;;;21.40;100862.00;;;;2046133;28;20744;-51
2021/11/22 02:46:47;;;;;;;5.10;3.07;;;;;21.40;100873.00;;;;2046276;28;20673;-47
2021/11/22 02:47:48;;;;;;;4.50;3.30;;;;;21.40;100865.00;;;;2039790;28;20651;-49
2021/11/22 02:48:48;;;;;;;3.42;3.05;;;;;21.40;100868.00;;;;2046064;28;20307;-49
2021/11/22 02:49:49;;;;;;;3.83;3.30;;;;;21.40;100860.00;;;;2046189;28;20219;-47
2021/11/22 02:50:49;;;;;;;3.50;3.10;;;;;21.40;100864.00;;;;2045120;28;20205;-49
2021/11/22 02:51:51;;;;;;;3.67;3.27;;;;;21.40;100863.00;;;;2043736;28;20216;-49
2021/11/22 02:52:52;;;;;;;4.07;3.00;;;;;21.40;100871.00;;;;2041850;28;20243;-49
2021/11/22 02:54:02;;;;;;;2.90;2.70;;;;;21.40;100865.00;;;;2045023;28;20243;-47
2021/11/22 02:55:04;;;;;;;6.00;2.63;;;;;21.40;100863.00;;;;2045578;28;20470;-49
2021/11/22 02:56:08;;;;;;;3.20;2.90;;;;;21.40;100865.00;;;;2045634;28;20220;-48
2021/11/22 02:57:09;;;;;;;3.10;2.70;;;;;21.40;100868.00;;;;2045822;28;20290;-48
2021/11/22 02:58:09;;;;;;;3.40;3.10;;;;;21.40;100865.00;;;;2045353;28;20629;-48
2021/11/22 02:59:09;;;;;;;3.57;3.13;;;;;21.40;100868.00;;;;2045754;28;20251;-50
2021/11/22 03:00:13;;;;;;;3.40;3.10;;;;;21.40;100864.00;;;;2045686;28;20228;-48
2021/11/22 03:01:14;;;;;;;3.42;3.10;;;;;21.40;100866.00;;;;2044870;28;20757;-50
2021/11/22 03:02:14;;;;;;;3.00;2.70;;;;;21.40;100872.00;;;;2045672;28;20224;-49
2021/11/22 03:03:15;;;;;;;3.10;2.80;;;;;21.40;100875.00;;;;2044884;29;20287;-48
2021/11/22 03:04:15;;;;;;;3.50;2.70;;;;;21.30;100881.00;;;;2044472;29;20216;-47
2021/11/22 03:05:16;;;;;;;4.10;2.93;;;;;21.30;100882.00;;;;2045978;28;20216;-47
2021/11/22 03:06:16;;;;;;;3.83;3.00;;;;;21.40;100874.00;;;;2045197;28;20212;-53
2021/11/22 03:07:17;;;;;;;3.20;2.90;;;;;21.40;100881.00;;;;2045640;28;20219;-49
2021/11/22 03:08:17;;;;;;;2.97;2.77;;;;;21.40;100882.00;;;;2045255;28;20518;-49
2021/11/22 03:09:17;;;;;;;3.13;2.90;;;;;21.40;100884.00;;;;2045219;28;20220;-47
2021/11/22 03:10:18;;;;;;;3.43;2.80;;;;;21.40;100886.00;;;;2045023;28;20215;-47
2021/11/22 03:11:19;;;;;;;3.00;2.80;;;;;21.40;100878.00;;;;2045829;28;20221;-49
2021/11/22 03:12:19;;;;;;;3.60;2.93;;;;;21.40;100890.00;;;;2044729;28;20212;-50
2021/11/22 03:13:19;;;;;;;3.10;2.53;;;;;21.40;100891.00;;;;2045555;28;20480;-51
2021/11/22 03:14:20;;;;;;;2.53;2.20;;;;;21.40;100893.00;;;;2050162;28;20279;-51
2021/11/22 03:15:20;;;;;;;3.00;2.47;;;;;21.40;100899.00;;;;2044476;29;20208;-49
2021/11/22 03:16:21;;;;;;;2.90;2.63;;;;;21.40;100888.00;;;;2036749;29;20350;-49
2021/11/22 03:17:21;;;;;;;2.80;2.60;;;;;21.40;100890.00;;;;2036905;29;20684;-51
2021/11/22 03:18:21;;;;;;;3.37;3.07;;;;;21.40;100898.00;;;;2044484;29;20312;-51
2021/11/22 03:19:22;;;;;;;2.90;2.60;;;;;21.40;100888.00;;;;2053311;28;20394;-51
2021/11/22 03:20:22;;;;;;;2.83;2.53;;;;;21.40;100892.00;;;;2043670;28;20239;-51
2021/11/22 03:21:23;;;;;;;3.00;2.70;;;;;21.30;100893.00;;;;2043328;28;20316;-50
2021/11/22 03:22:23;;;;;;;2.73;2.53;;;;;21.30;100899.00;;;;2053061;28;20298;-52
2021/11/22 03:23:23;;;;;;;3.50;3.20;;;;;21.30;100903.00;;;;2053588;28;20220;-50
2021/11/22 03:24:25;;;;;;;3.10;2.80;;;;;21.30;100906.00;;;;2053421;28;20303;-53
2021/11/22 03:25:30;;;;;;;3.10;2.72;;;;;21.30;100897.00;;;;2045286;28;20291;-49
2021/11/22 03:26:31;;;;;;;3.40;2.55;;;;;21.30;100898.00;;;;2043042;28;20263;-50
2021/11/22 03:27:31;;;;;;;3.13;2.80;;;;;21.40;100895.00;;;;2051158;28;20619;-48
2021/11/22 03:28:32;;;;;;;3.60;2.50;;;;;21.40;100906.00;;;;2053723;28;20219;-49
2021/11/22 03:29:32;;;;;;;2.80;2.50;;;;;21.40;100902.00;;;;2053734;28;20212;-50
2021/11/22 03:30:33;;;;;;;2.87;2.67;;;;;21.40;100899.00;;;;2052625;28;20227;-49
2021/11/22 03:31:33;;;;;;;2.83;2.53;;;;;21.30;100863.00;;;;2044665;28;20212;-48
2021/11/22 03:32:34;;;;;;;3.43;2.33;;;;;21.40;100900.00;;;;2042149;28;20560;-50
2021/11/22 03:33:34;;;;;;;2.67;2.47;;;;;21.30;100909.00;;;;2052878;28;20215;-49
2021/11/22 03:34:35;;;;;;;2.80;2.60;;;;;21.30;100902.00;;;;2053023;28;20219;-50
2021/11/22 03:35:35;;;;;;;2.37;2.17;;;;;21.30;100910.00;;;;2054223;28;20212;-51
2021/11/22 03:36:35;;;;;;;2.70;2.50;;;;;21.30;100912.00;;;;2054083;28;20543;-50
2021/11/22 03:37:36;;;;;;;3.30;3.00;;;;;21.40;100918.00;;;;2053826;28;20235;-49
2021/11/22 03:38:37;;;;;;;3.10;2.80;;;;;21.30;100921.00;;;;2053779;28;20223;-50
2021/11/22 03:39:37;;;;;;;2.93;2.63;;;;;21.30;100922.00;;;;2054788;28;20220;-51
2021/11/22 03:40:39;;;;;;;2.90;2.70;;;;;21.30;100922.00;;;;2053508;28;20309;-48
2021/11/22 03:41:39;;;;;;;2.78;2.58;;;;;21.30;100932.00;;;;2051660;28;20278;-47
2021/11/22 03:42:42;;;;;;;3.40;2.63;;;;;21.30;100925.00;;;;2051240;28;20219;-47
2021/11/22 03:44:52;;;;;;;3.05;2.75;;;;;21.30;100924.00;;;;2054792;28;20231;-48
2021/11/22 03:45:53;;;;;;;2.65;2.45;;;;;21.30;100936.00;;;;2054357;28;20223;-48
2021/11/22 03:46:54;;;;;;;2.57;2.37;;;;;21.30;100936.00;;;;2054425;28;20230;-48
2021/11/22 03:47:54;;;;;;;2.77;2.57;;;;;21.30;100935.00;;;;2054388;28;20282;-48
2021/11/22 03:48:54;;;;;;;2.80;2.60;;;;;21.30;100934.00;;;;2054044;28;20755;-49
2021/11/22 03:49:55;;;;;;;2.67;2.23;;;;;21.30;100935.00;;;;2055249;28;20223;-48
2021/11/22 03:50:55;;;;;;;2.50;2.30;;;;;21.30;100933.00;;;;2045600;28;20313;-47
2021/11/22 03:51:55;;;;;;;3.83;2.37;;;;;21.30;100941.00;;;;2038058;29;20736;-48
2021/11/22 03:52:56;;;;;;;4.53;2.60;;;;;21.30;100934.00;;;;2045723;29;20224;-48
2021/11/22 03:53:56;;;;;;;3.53;2.30;;;;;21.30;100940.00;;;;2054800;28;20219;-47
2021/11/22 03:54:56;;;;;;;2.83;2.30;;;;;21.30;100942.00;;;;2054858;28;20242;-47
2021/11/22 03:55:57;;;;;;;2.83;2.63;;;;;21.30;100943.00;;;;2054950;28;20219;-48
2021/11/22 03:56:57;;;;;;;4.37;3.20;;;;;21.30;100951.00;;;;2054954;28;20228;-49
2021/11/22 03:57:57;;;;;;;2.47;2.27;;;;;21.30;100948.00;;;;2054840;28;20698;-48
2021/11/22 03:58:58;;;;;;;2.87;2.63;;;;;21.30;100963.00;;;;2054934;28;20306;-47
2021/11/22 03:59:58;;;;;;;2.37;2.17;;;;;21.30;100960.00;;;;2054750;28;20448;-48
2021/11/22 04:00:59;;;;;;;2.63;2.43;;;;;21.30;100962.00;;;;2054071;28;20216;-46
2021/11/22 04:01:59;;;;;;;2.60;2.40;;;;;21.30;100958.00;;;;2053770;28;20224;-50
2021/11/22 04:02:59;;;;;;;2.60;2.40;;;;;21.20;100966.00;;;;2052315;28;20278;-47
2021/11/22 04:04:00;;;;;;;3.20;2.53;;;;;21.30;100968.00;;;;2054174;28;20220;-47
2021/11/22 04:05:00;;;;;;;2.60;2.40;;;;;21.30;100968.00;;;;2054282;28;20306;-48
2021/11/22 04:06:00;;;;;;;2.40;2.20;;;;;21.30;100970.00;;;;2054737;28;20215;-48
2021/11/22 04:07:01;;;;;;;2.80;2.50;;;;;21.30;100975.00;;;;2054291;28;20219;-47
2021/11/22 04:08:01;;;;;;;2.97;2.60;;;;;21.20;100973.00;;;;2051997;28;20227;-52
2021/11/22 04:09:03;;;;;;;2.73;2.53;;;;;21.20;100977.00;;;;2054499;28;20249;-50
2021/11/22 04:10:03;;;;;;;2.45;2.25;;;;;21.20;100980.00;;;;2054193;28;20374;-49
2021/11/22 04:11:04;;;;;;;2.30;2.17;;;;;21.20;100982.00;;;;2053461;28;20228;-49
2021/11/22 04:12:04;;;;;;;2.50;2.30;;;;;21.20;100981.00;;;;2052591;28;20219;-49
2021/11/22 04:13:05;;;;;;;2.90;2.27;;;;;21.20;100982.00;;;;2052015;28;20211;-48
2021/11/22 04:14:06;;;;;;;2.33;2.13;;;;;21.20;100972.00;;;;2053760;28;20219;-49
2021/11/22 04:15:06;;;;;;;2.13;1.93;;;;;21.20;100976.00;;;;2054364;28;20680;-49
2021/11/22 04:16:07;;;;;;;2.53;2.33;;;;;21.20;100987.00;;;;2054462;28;20215;-49
2021/11/22 04:17:07;;;;;;;2.20;2.10;;;;;21.30;100983.00;;;;2052619;28;20223;-47
2021/11/22 04:18:08;;;;;;;3.43;2.10;;;;;21.20;100983.00;;;;2051071;28;20242;-48
2021/11/22 04:19:08;;;;;;;2.03;1.80;;;;;21.20;100986.00;;;;2054197;28;20222;-49
2021/11/22 04:20:09;;;;;;;2.17;1.97;;;;;21.20;100991.00;;;;2054046;28;20353;-47
2021/11/22 04:21:11;;;;;;;2.00;1.90;;;;;21.20;100999.00;;;;2053894;28;20222;-48
2021/11/22 04:22:11;;;;;;;2.65;1.90;;;;;21.20;100998.00;;;;2054529;28;20212;-48
2021/11/22 04:23:12;;;;;;;2.10;1.90;;;;;21.20;100988.00;;;;2050171;28;20804;-48
2021/11/22 04:24:12;;;;;;;2.50;2.30;;;;;21.20;100996.00;;;;2054398;28;20211;-49
2021/11/22 04:25:13;;;;;;;2.30;2.10;;;;;21.20;100995.00;;;;2053919;28;20324;-49
2021/11/22 04:26:14;;;;;;;2.20;2.00;;;;;21.20;101003.00;;;;2054522;28;20299;-48
2021/11/22 04:27:14;;;;;;;2.30;2.10;;;;;21.20;101004.00;;;;2054267;28;20632;-49
2021/11/22 04:28:14;;;;;;;2.03;1.93;;;;;21.20;101009.00;;;;2054436;28;20219;-48
2021/11/22 04:29:15;;;;;;;3.40;2.20;;;;;21.20;101004.00;;;;2052858;28;20354;-49
2021/11/22 04:30:15;;;;;;;2.17;2.07;;;;;21.20;101001.00;;;;2066420;23;20249;-45
2021/11/22 04:31:15;;;;;;;2.10;1.90;;;;;21.20;101010.00;;;;2048831;28;20273;-44
2021/11/22 04:32:16;;;;;;;2.23;2.07;;;;;21.20;101014.00;;;;2048113;28;20213;-43
2021/11/22 04:33:16;;;;;;;2.30;2.10;;;;;21.20;101022.00;;;;2054281;28;20239;-43
2021/11/22 04:34:17;;;;;;;2.00;1.77;;;;;21.20;101012.00;;;;2054055;28;20223;-44
2021/11/22 04:35:17;;;;;;;2.27;1.60;;;;;21.20;101016.00;;;;2051421;28;20219;-47
2021/11/22 04:36:17;;;;;;;2.20;2.10;;;;;21.20;101022.00;;;;2045298;29;20694;-45
2021/11/22 04:37:18;;;;;;;1.97;1.80;;;;;21.20;101023.00;;;;2045763;29;20347;-44
2021/11/22 04:38:18;;;;;;;1.73;1.63;;;;;21.20;101028.00;;;;2054750;28;20211;-44
2021/11/22 04:39:18;;;;;;;2.30;2.10;;;;;21.20;101023.00;;;;2054853;28;20223;-43
2021/11/22 04:40:19;;;;;;;1.80;1.70;;;;;21.20;101020.00;;;;2054401;28;20957;-44
2021/11/22 04:41:21;;;;;;;1.83;1.73;;;;;21.20;101018.00;;;;2054391;28;20251;-47
2021/11/22 04:42:21;;;;;;;2.15;1.70;;;;;21.10;101018.00;;;;2054876;28;20220;-44
2021/11/22 04:43:21;;;;;;;3.50;2.03;;;;;21.10;101014.00;;;;2043096;29;20220;-46
2021/11/22 04:44:22;;;;;;;3.83;1.87;;;;;21.10;101021.00;;;;2044539;28;20256;-45
2021/11/22 04:45:31;;;;;;;5.10;1.70;;;;;21.10;101014.00;;;;2054372;28;20218;-44
2021/11/22 04:46:32;;;;;;;1.92;1.35;;;;;21.10;101016.00;;;;2047287;28;20579;-46
2021/11/22 04:47:34;;;;;;;2.03;1.80;;;;;21.10;101018.00;;;;2047425;28;20216;-46
2021/11/22 04:48:34;;;;;;;2.30;1.50;;;;;21.20;101018.00;;;;2051777;28;20219;-45
2021/11/22 04:49:35;;;;;;;2.53;1.73;;;;;21.30;101024.00;;;;2054901;28;20295;-45
2021/11/22 04:50:35;;;;;;;1.77;1.67;;;;;21.30;101017.00;;;;2045405;29;20222;-44
2021/11/22 04:51:37;;;;;;;2.00;1.80;;;;;21.30;101021.00;;;;2038341;29;20217;-48
2021/11/22 04:52:37;;;;;;;1.63;1.52;;;;;21.30;101026.00;;;;2046195;28;20220;-45
2021/11/22 04:53:37;;;;;;;1.97;1.57;;;;;21.30;101023.00;;;;2052158;28;20307;-44
2021/11/22 04:54:38;;;;;;;3.87;1.50;;;;;21.30;101029.00;;;;2054434;28;20215;-44
2021/11/22 04:55:39;;;;;;;2.13;1.75;;;;;21.40;101035.00;;;;2045686;29;20311;-44
2021/11/22 04:56:39;;;;;;;1.60;1.50;;;;;21.40;101031.00;;;;2045893;28;20305;-45
2021/11/22 04:57:40;;;;;;;1.77;1.50;;;;;21.30;101038.00;;;;2054728;28;20266;-46
2021/11/22 04:58:41;;;;;;;3.30;1.80;;;;;21.40;101041.00;;;;2053530;28;20888;-46
2021/11/22 04:59:41;;;;;;;2.00;1.80;;;;;21.40;101035.00;;;;2052453;28;20291;-46
2021/11/22 05:00:42;;;;;;;1.93;1.83;;;;;21.40;101044.00;;;;2038725;28;20225;-47